createdAt,value
2023-02-19T00:31:10.008Z,9.8
2023-02-19T01:11:03.162Z,9.7
2023-02-19T01:21:05.150Z,9.7
2023-02-19T01:31:07.855Z,9.7
2023-02-19T01:41:10.186Z,9.7
2023-02-19T01:51:11.922Z,9.4
2023-02-19T02:11:15.509Z,9.2
2023-02-19T02:51:23.219Z,8.9
2023-02-19T03:31:32.321Z,8.9
2023-02-19T04:01:38.250Z,8.8
2023-02-19T04:11:40.311Z,8.7
2023-02-19T04:51:48.090Z,8.7
2023-02-19T05:01:50.555Z,8.6
2023-02-19T05:11:52.454Z,8.6
2023-02-19T05:21:54.483Z,8.6
2023-02-19T05:32:04.004Z,8.6
2023-02-19T05:52:01.539Z,8.5
2023-02-19T06:12:13.041Z,8.5
2023-02-19T06:22:22.070Z,8.4
2023-02-19T06:32:17.529Z,8.3
2023-02-19T08:02:44.511Z,8.2
2023-02-19T08:32:44.143Z,8.3
2023-02-19T08:42:39.243Z,8.3
2023-02-19T08:52:48.383Z,8.3
2023-02-19T09:12:45.615Z,8.3
2023-02-19T09:22:47.465Z,8.4
2023-02-19T09:32:50.065Z,8.5
2023-02-19T09:42:52.700Z,8.5
2023-02-19T09:52:55.345Z,8.4
2023-02-19T10:02:57.846Z,8.3
2023-02-19T10:12:59.900Z,8.6
2023-02-19T10:23:02.460Z,8.6
2023-02-19T10:33:04.381Z,8.6
2023-02-19T10:43:06.330Z,7.1
2023-02-19T10:53:08.507Z,6.5
2023-02-19T11:03:10.444Z,6.4
2023-02-19T11:13:12.940Z,6.4
2023-02-19T11:23:15.569Z,6.4
2023-02-19T11:33:18.115Z,6.3
2023-02-19T11:43:20.077Z,6.3
2023-02-19T11:53:29.577Z,6.3
2023-02-19T11:53:36.441Z,6.3
2023-02-19T12:03:39.004Z,6.7
2023-02-19T12:13:41.686Z,6.6
2023-02-19T12:23:43.347Z,6.7
2023-02-19T12:33:45.176Z,6.7
2023-02-19T12:43:47.267Z,6.6
2023-02-19T13:03:51.379Z,6.6
2023-02-19T13:13:53.171Z,6.6
2023-02-19T13:23:55.279Z,6.7
2023-02-19T13:43:59.768Z,6.7
2023-02-19T13:54:01.953Z,6.7
2023-02-19T14:04:04.483Z,6.8
2023-02-19T14:14:06.992Z,6.7
2023-02-19T14:24:09.159Z,6.8
2023-02-19T14:34:11.637Z,6.7
2023-02-19T14:44:14.047Z,6.8
2023-02-19T14:54:16.274Z,6.9
2023-02-19T15:04:18.647Z,6.8
2023-02-19T15:14:20.452Z,6.9
2023-02-19T15:24:22.423Z,7.1
2023-02-19T15:34:24.903Z,6.9
2023-02-19T15:44:27.425Z,7
2023-02-19T15:54:29.792Z,7.3
2023-02-19T16:04:31.762Z,7.3
2023-02-19T16:24:35.913Z,7.4
2023-02-19T16:34:37.971Z,7.4
2023-02-19T16:44:40.567Z,7.4
2023-02-19T16:54:43.031Z,7.5
2023-02-19T17:04:44.816Z,7.4
2023-02-19T17:14:47.332Z,7.4
2023-02-19T17:34:52.333Z,7.2
2023-02-19T17:44:54.303Z,7.1
2023-02-19T17:54:56.835Z,7
2023-02-19T18:04:58.966Z,6.9
2023-02-19T18:15:01.457Z,6.3
2023-02-19T18:25:03.873Z,6.2
2023-02-19T18:35:05.664Z,6
2023-02-19T18:45:08.116Z,5.9
2023-02-19T18:55:09.932Z,5.8
2023-02-19T19:05:12.034Z,5.8
2023-02-19T19:15:16.301Z,5.6
2023-02-19T19:25:16.466Z,5.6
2023-02-19T19:35:18.736Z,5.5
2023-02-19T19:45:21.152Z,5.6
2023-02-19T19:55:22.980Z,5.6
2023-02-19T20:05:24.747Z,5.6
2023-02-19T20:15:26.461Z,5.6
2023-02-19T20:25:28.774Z,5.6
2023-02-19T20:35:30.707Z,5.6
2023-02-19T20:45:32.915Z,5.6
2023-02-19T20:55:34.814Z,5.5
2023-02-19T21:05:36.833Z,5.5
2023-02-19T21:15:39.047Z,5.5
2023-02-19T21:25:41.662Z,5.4
2023-02-19T21:35:44.208Z,5.5
2023-02-19T21:45:45.900Z,5.5
2023-02-19T21:55:57.720Z,5.5
2023-02-19T22:05:50.099Z,5.6
2023-02-19T22:15:51.931Z,5.6
2023-02-19T22:25:54.306Z,5.6
2023-02-19T22:35:56.697Z,5.6
2023-02-19T22:45:59.097Z,5.6
2023-02-19T22:56:01.261Z,5.4
2023-02-19T23:06:03.602Z,5.3
2023-02-19T23:16:05.261Z,5.1
2023-02-19T23:36:10.834Z,5
2023-02-19T23:46:13.233Z,5
2023-02-19T23:56:15.119Z,5
